Terminal Aerodrome Forecast
Issued by NWS

Home | Current Version | Previous Version | Text Only | Print | Product List | Glossary On
Versions: 1 2 3 4 5 6 7 8 9 10 11 12 13 14 15 16 17 18 19 20 21 22 23 24 25 26 27 28 29 30 31 32 33 34 35 36 37 38 39 40 41 42 43 44 45 46 47 48 49 50
000
FTUS43 KLOT 221737
TAFORD
TAF
KORD 221737Z 2218/2324 16008KT 2SM BR OVC004
     FM221930 17009KT 3SM BR SCT004 BKN009
     FM222100 17010G17KT P6SM SCT050 SCT250
     FM230100 19016G26KT P6SM FEW025 SCT250
     FM231000 25013G20KT 6SM -SHRA BKN007 OVC010
     FM231200 32013G20KT 6SM -SHRA SCT006 OVC010 PROB30 2312/2316
      3SM -TSRA OVC006CB
     FM232000 33014G21KT P6SM BKN020=

USA.gov is the U.S. government's official web portal to all federal, state and local government web resources and services.